createdAt,value
2022-11-20T00:00:04.823Z,99601.78
2022-11-20T00:00:36.417Z,99596.47
2022-11-20T00:01:08.311Z,99591.28
2022-11-20T00:01:39.853Z,99595.78
2022-11-20T00:02:11.553Z,99597.56
2022-11-20T00:02:43.144Z,99595.78
2022-11-20T00:03:14.663Z,99593.81
2022-11-20T00:03:46.280Z,99592.97
2022-11-20T00:04:17.757Z,99589.03
2022-11-20T00:04:49.453Z,99600.53
2022-11-20T00:05:21.057Z,99599.56
2022-11-20T00:05:52.577Z,99591.59
2022-11-20T00:06:24.222Z,99601.25
2022-11-20T00:06:55.730Z,99600.53
2022-11-20T00:07:27.316Z,99596.91
2022-11-20T00:07:58.969Z,99602.91
2022-11-20T00:08:30.512Z,99600.25
2022-11-20T00:09:02.106Z,99599.56
2022-11-20T00:09:33.660Z,99603.91
2022-11-20T00:10:05.451Z,99592.66
2022-11-20T00:10:37.398Z,99596.09
2022-11-20T00:11:15.364Z,99594.63
2022-11-20T00:11:47.498Z,99598.31
2022-11-20T00:12:18.969Z,99599.13
2022-11-20T00:12:50.597Z,99599.13
2022-11-20T00:13:22.186Z,99598.00
2022-11-20T00:13:54.648Z,99602.47
2022-11-20T00:14:26.158Z,99589.19
2022-11-20T00:14:57.623Z,99596.47
2022-11-20T00:15:29.194Z,99601.66
2022-11-20T00:16:01.136Z,99606.13
2022-11-20T00:16:32.982Z,99603.47
2022-11-20T00:17:04.547Z,99597.16
2022-11-20T00:17:35.984Z,99593.66
2022-11-20T00:18:07.588Z,99599.13
2022-11-20T00:18:39.098Z,99597.28
2022-11-20T00:19:10.593Z,99599.13
2022-11-20T00:19:42.183Z,99598.16
2022-11-20T00:20:13.762Z,99595.50
2022-11-20T00:20:45.254Z,99591.00
2022-11-20T00:21:17.584Z,99596.31
2022-11-20T00:21:49.126Z,99598.00
2022-11-20T00:22:20.608Z,99604.44
2022-11-20T00:22:52.196Z,99600.66
2022-11-20T00:23:23.755Z,99594.34
2022-11-20T00:23:55.699Z,99587.34
2022-11-20T00:24:27.197Z,99598.84
2022-11-20T00:24:58.775Z,99586.38
2022-11-20T00:25:30.242Z,99586.50
2022-11-20T00:26:02.546Z,99591.97
2022-11-20T00:26:34.253Z,99590.19
2022-11-20T00:27:05.778Z,99589.19
2022-11-20T00:27:38.358Z,99594.50
2022-11-20T00:28:09.822Z,99598.16
2022-11-20T00:28:41.898Z,99593.66
2022-11-20T00:29:13.379Z,99595.22
2022-11-20T00:29:44.938Z,99597.16
2022-11-20T00:30:16.481Z,99599.97
2022-11-20T00:30:47.942Z,99599.13
2022-11-20T00:31:19.397Z,99600.81
2022-11-20T00:31:50.911Z,99599.13
2022-11-20T00:32:22.429Z,99600.81
2022-11-20T00:32:53.907Z,99594.78
2022-11-20T00:33:25.453Z,99606.41
2022-11-20T00:33:57.018Z,99592.13
2022-11-20T00:34:28.482Z,99596.59
2022-11-20T00:34:59.968Z,99594.63
2022-11-20T00:35:31.456Z,99597.44
2022-11-20T00:36:03.610Z,99591.28
2022-11-20T00:36:35.108Z,99599.13
2022-11-20T00:37:06.596Z,99593.81
2022-11-20T00:37:38.122Z,99592.13
2022-11-20T00:38:09.648Z,99587.78
2022-11-20T00:38:41.135Z,99596.59
2022-11-20T00:39:12.695Z,99588.63
2022-11-20T00:39:44.196Z,99600.09
2022-11-20T00:40:15.697Z,99606.13
2022-11-20T00:40:52.242Z,99605.28
2022-11-20T00:41:26.698Z,99605.56
2022-11-20T00:41:58.811Z,99603.91
2022-11-20T00:42:30.271Z,99601.09
2022-11-20T00:43:01.835Z,99608.06
2022-11-20T00:43:33.380Z,99604.59
2022-11-20T00:44:04.991Z,99602.75
2022-11-20T00:44:36.543Z,99599.13
2022-11-20T00:45:08.311Z,99600.09
2022-11-20T00:45:39.803Z,99601.78
2022-11-20T00:46:13.697Z,99599.69
2022-11-20T00:46:45.141Z,99605.59
2022-11-20T00:47:16.650Z,99595.66
2022-11-20T00:47:48.182Z,99602.78
2022-11-20T00:48:19.663Z,99598.59
2022-11-20T00:48:51.124Z,99602.22
2022-11-20T00:49:22.835Z,99596.31
2022-11-20T00:49:54.686Z,99601.50
2022-11-20T00:50:26.236Z,99594.25
2022-11-20T00:50:57.861Z,99596.19
2022-11-20T00:51:29.459Z,99601.09
2022-11-20T00:52:01.138Z,99594.09
2022-11-20T00:52:32.654Z,99599.41
2022-11-20T00:53:04.202Z,99598.44
2022-11-20T00:53:35.711Z,99594.91
2022-11-20T00:54:07.178Z,99596.88
2022-11-20T00:54:38.668Z,99591.44
2022-11-20T00:55:10.223Z,99596.75
2022-11-20T00:55:41.687Z,99594.38
2022-11-20T00:56:14.052Z,99598.72
2022-11-20T00:56:45.609Z,99602.22
2022-11-20T00:57:17.089Z,99601.50
2022-11-20T00:57:48.591Z,99599.25
2022-11-20T00:58:20.111Z,99597.72
2022-11-20T00:58:51.550Z,99596.59
2022-11-20T00:59:23.418Z,99596.59
2022-11-20T00:59:55.116Z,99595.06
2022-11-20T01:00:26.627Z,99594.22
2022-11-20T01:01:01.734Z,99598.56
2022-11-20T01:01:33.315Z,99587.06
2022-11-20T01:02:04.809Z,99592.66
2022-11-20T01:02:36.375Z,99601.25
2022-11-20T01:03:07.816Z,99601.09
2022-11-20T01:03:40.255Z,99595.06
2022-11-20T01:04:11.778Z,99594.09
2022-11-20T01:04:43.398Z,99594.91
2022-11-20T01:05:14.969Z,99599.41
2022-11-20T01:05:46.447Z,99591.56
2022-11-20T01:06:19.132Z,99589.31
2022-11-20T01:06:50.615Z,99599.13
2022-11-20T01:07:22.174Z,99591.16
2022-11-20T01:07:53.735Z,99588.47
2022-11-20T01:08:25.319Z,99590.19
2022-11-20T01:08:57.425Z,99590.47
2022-11-20T01:09:28.871Z,99591.44
2022-11-20T01:10:00.357Z,99590.59
2022-11-20T01:10:31.810Z,99582.63
2022-11-20T01:11:12.341Z,99587.78
2022-11-20T01:11:44.289Z,99588.75
2022-11-20T01:12:15.778Z,99594.91
2022-11-20T01:12:47.282Z,99588.75
2022-11-20T01:13:22.913Z,99589.72
2022-11-20T01:13:57.233Z,99593.13
2022-11-20T01:14:28.696Z,99599.41
2022-11-20T01:15:00.208Z,99591.28
2022-11-20T01:15:31.661Z,99590.31
2022-11-20T01:16:10.649Z,99590.31
2022-11-20T01:16:43.051Z,99593.94
2022-11-20T01:17:14.497Z,99594.91
2022-11-20T01:17:46.046Z,99587.94
2022-11-20T01:18:17.495Z,99592.41
2022-11-20T01:18:50.024Z,99598.56
2022-11-20T01:19:22.361Z,99592.41
2022-11-20T01:19:53.957Z,99591.56
2022-11-20T01:20:25.521Z,99594.91
2022-11-20T01:21:00.606Z,99593.25
2022-11-20T01:21:32.936Z,99585.97
2022-11-20T01:22:04.449Z,99596.88
2022-11-20T01:22:35.965Z,99592.41
2022-11-20T01:23:07.434Z,99590.72
2022-11-20T01:23:40.468Z,99588.75
2022-11-20T01:24:12.759Z,99589.72
2022-11-20T01:24:44.258Z,99590.47
2022-11-20T01:25:15.711Z,99585.13
2022-11-20T01:25:47.172Z,99586.78
2022-11-20T01:26:19.966Z,99587.06
2022-11-20T01:26:51.626Z,99580.78
2022-11-20T01:27:23.111Z,99587.78
2022-11-20T01:27:54.563Z,99575.47
2022-11-20T01:28:26.022Z,99589.03
2022-11-20T01:28:57.667Z,99586.38
2022-11-20T01:29:29.210Z,99581.75
2022-11-20T01:30:01.435Z,99586.25
2022-11-20T01:30:33.160Z,99584.41
2022-11-20T01:31:16.574Z,99583.44
2022-11-20T01:31:48.118Z,99581.06
2022-11-20T01:32:19.652Z,99583.59
2022-11-20T01:32:51.126Z,99579.94
2022-11-20T01:33:22.597Z,99586.09
2022-11-20T01:33:55.107Z,99578.25
2022-11-20T01:34:26.730Z,99583.72
2022-11-20T01:34:58.296Z,99585.41
2022-11-20T01:35:29.798Z,99582.03
2022-11-20T01:36:04.616Z,99582.63
2022-11-20T01:36:36.299Z,99587.06
2022-11-20T01:37:07.821Z,99582.75
2022-11-20T01:37:39.246Z,99583.59
2022-11-20T01:38:10.657Z,99581.88
2022-11-20T01:38:42.245Z,99588.91
2022-11-20T01:39:17.409Z,99582.63
2022-11-20T01:39:48.861Z,99587.22
2022-11-20T01:40:20.327Z,99581.75
2022-11-20T01:40:55.044Z,99586.38
2022-11-20T01:41:27.006Z,99593.41
2022-11-20T01:41:58.619Z,99585.41
2022-11-20T01:42:30.171Z,99586.09
2022-11-20T01:43:13.672Z,99587.06
2022-11-20T01:43:45.150Z,99587.06
2022-11-20T01:44:17.578Z,99587.94
2022-11-20T01:44:49.024Z,99581.88
2022-11-20T01:45:38.811Z,99586.38
2022-11-20T01:46:16.940Z,99583.72
2022-11-20T01:46:58.631Z,99586.53
2022-11-20T01:47:31.542Z,99585.41
2022-11-20T01:48:03.115Z,99589.72
2022-11-20T01:48:39.422Z,99587.34
2022-11-20T01:49:20.145Z,99591.69
2022-11-20T01:49:53.791Z,99593.53
2022-11-20T01:50:25.981Z,99593.53
2022-11-20T01:50:57.449Z,99591.56
2022-11-20T01:51:36.434Z,99591.56
2022-11-20T01:52:18.174Z,99589.72
2022-11-20T01:53:02.562Z,99589.03
2022-11-20T01:53:34.467Z,99585.69
2022-11-20T01:54:06.844Z,99575.88
2022-11-20T01:54:48.139Z,99571.38
2022-11-20T01:55:23.217Z,99570.69
2022-11-20T01:55:54.943Z,99569.03
2022-11-20T01:56:26.419Z,99568.91
2022-11-20T01:56:58.064Z,99572.38
2022-11-20T01:57:29.767Z,99573.34
2022-11-20T01:58:01.390Z,99558.25
2022-11-20T01:58:34.207Z,99565.25
2022-11-20T01:59:06.441Z,99560.91
2022-11-20T01:59:38.980Z,99560.75
2022-11-20T02:00:11.444Z,99563.41
2022-11-20T02:00:43.004Z,99562.72
2022-11-20T02:01:14.591Z,99561.88
2022-11-20T02:01:46.236Z,99558.25
2022-11-20T02:02:17.803Z,99561.06
2022-11-20T02:02:50.878Z,99561.75
2022-11-20T02:03:22.438Z,99561.75
2022-11-20T02:03:53.959Z,99557.13
2022-11-20T02:04:25.468Z,99569.44
2022-11-20T02:04:57.939Z,99558.94
2022-11-20T02:05:46.421Z,99562.56
2022-11-20T02:06:20.014Z,99558.09
2022-11-20T02:07:00.680Z,99558.25
2022-11-20T02:07:32.390Z,99558.25
2022-11-20T02:08:04.230Z,99556.56
2022-11-20T02:08:35.829Z,99553.78
2022-11-20T02:09:07.301Z,99556.44
2022-11-20T02:09:38.908Z,99553.78
2022-11-20T02:10:10.474Z,99552.94
2022-11-20T02:10:42.001Z,99553.78
2022-11-20T02:11:13.528Z,99553.63
2022-11-20T02:11:45.023Z,99555.59
2022-11-20T02:12:16.440Z,99558.41
2022-11-20T02:12:48.354Z,99555.44
2022-11-20T02:13:19.834Z,99559.09
2022-11-20T02:13:51.422Z,99552.94
2022-11-20T02:14:23.020Z,99550.41
2022-11-20T02:14:54.520Z,99552.09
2022-11-20T02:15:30.149Z,99538.78
2022-11-20T02:16:02.358Z,99542.44
2022-11-20T02:16:37.092Z,99541.44
2022-11-20T02:17:08.871Z,99528.81
2022-11-20T02:17:40.376Z,99540.31
2022-11-20T02:18:12.142Z,99537.53
2022-11-20T02:18:43.818Z,99542.13
2022-11-20T02:19:22.637Z,99537.81
2022-11-20T02:19:54.492Z,99539.47
2022-11-20T02:20:26.067Z,99535.69
2022-11-20T02:21:02.155Z,99538.63
2022-11-20T02:21:50.441Z,99537.81
2022-11-20T02:22:39.352Z,99531.66
2022-11-20T02:23:15.395Z,99532.63
2022-11-20T02:23:55.380Z,99534.16
2022-11-20T02:24:26.913Z,99534.31
2022-11-20T02:24:59.650Z,99538.91
2022-11-20T02:25:31.133Z,99531.94
2022-11-20T02:26:03.031Z,99532.78
2022-11-20T02:26:54.773Z,99529.13
2022-11-20T02:27:26.309Z,99534.31
2022-11-20T02:27:57.830Z,99531.81
2022-11-20T02:28:29.336Z,99525.47
2022-11-20T02:29:01.354Z,99526.16
2022-11-20T02:29:32.879Z,99527.16
2022-11-20T02:30:05.215Z,99529.84
2022-11-20T02:30:36.714Z,99528.13
2022-11-20T02:31:08.210Z,99535.16
2022-11-20T02:31:41.184Z,99533.31
2022-11-20T02:32:41.800Z,99535.16
2022-11-20T02:33:13.385Z,99543.13
2022-11-20T02:33:44.847Z,99536.97
2022-11-20T02:34:16.390Z,99544.09
2022-11-20T02:34:48.023Z,99541.44
2022-11-20T02:35:19.513Z,99542.31
2022-11-20T02:35:51.039Z,99538.63
2022-11-20T02:36:22.476Z,99544.09
2022-11-20T02:36:54.094Z,99534.16
2022-11-20T02:37:29.043Z,99541.16
2022-11-20T02:38:01.476Z,99544.97
2022-11-20T02:38:32.988Z,99547.44
2022-11-20T02:39:04.633Z,99544.78
2022-11-20T02:39:36.135Z,99548.72
2022-11-20T02:40:08.122Z,99544.25
2022-11-20T02:40:39.614Z,99539.78
2022-11-20T02:41:11.171Z,99535.28
2022-11-20T02:41:42.677Z,99545.09
2022-11-20T02:42:14.260Z,99539.78
2022-11-20T02:42:45.869Z,99542.44
2022-11-20T02:43:17.439Z,99538.91
2022-11-20T02:43:48.962Z,99544.09
2022-11-20T02:44:20.682Z,99543.13
2022-11-20T02:44:52.149Z,99545.94
2022-11-20T02:45:23.991Z,99542.31
2022-11-20T02:45:55.479Z,99541.44
2022-11-20T02:46:27.451Z,99544.09
2022-11-20T02:46:59.097Z,99539.91
2022-11-20T02:47:30.573Z,99539.78
2022-11-20T02:48:02.011Z,99543.13
2022-11-20T02:48:34.046Z,99538.34
2022-11-20T02:49:05.713Z,99542.13
2022-11-20T02:49:37.156Z,99539.63
2022-11-20T02:50:08.872Z,99538.78
2022-11-20T02:50:40.443Z,99541.44
2022-11-20T02:51:11.934Z,99538.78
2022-11-20T02:51:43.500Z,99545.09
2022-11-20T02:52:15.052Z,99545.78
2022-11-20T02:52:46.575Z,99546.75
2022-11-20T02:53:17.987Z,99540.59
2022-11-20T02:53:49.457Z,99539.78
2022-11-20T02:54:21.004Z,99537.94
2022-11-20T02:54:52.511Z,99540.59
2022-11-20T02:55:24.035Z,99537.13
2022-11-20T02:55:55.502Z,99534.31
2022-11-20T02:56:26.892Z,99533.31
2022-11-20T02:56:58.400Z,99538.91
2022-11-20T02:57:29.939Z,99529.97
2022-11-20T02:58:01.424Z,99523.09
2022-11-20T02:58:32.916Z,99525.75
2022-11-20T02:59:04.464Z,99523.81
2022-11-20T02:59:36.028Z,99530.09
2022-11-20T03:00:07.889Z,99519.47
2022-11-20T03:00:39.364Z,99525.75
2022-11-20T03:01:10.907Z,99528.00
2022-11-20T03:01:42.538Z,99527.31
2022-11-20T03:02:14.104Z,99525.47
2022-11-20T03:02:45.623Z,99522.00
2022-11-20T03:03:17.096Z,99532.50
2022-11-20T03:03:48.841Z,99525.47
2022-11-20T03:04:20.359Z,99532.63
2022-11-20T03:04:53.171Z,99529.13
2022-11-20T03:06:03.161Z,99534.47
2022-11-20T03:06:35.087Z,99529.97
2022-11-20T03:07:07.449Z,99532.78
2022-11-20T03:07:39.645Z,99530.09
2022-11-20T03:08:12.679Z,99524.09
2022-11-20T03:08:45.031Z,99529.28
2022-11-20T03:09:16.761Z,99531.94
2022-11-20T03:09:48.738Z,99522.97
2022-11-20T03:10:20.534Z,99525.75
2022-11-20T03:10:52.670Z,99525.63
2022-11-20T03:11:24.484Z,99518.50
2022-11-20T03:11:56.473Z,99512.47
2022-11-20T03:12:28.458Z,99518.50
2022-11-20T03:13:00.050Z,99522.13
2022-11-20T06:01:51.070Z,99470.91
2022-11-20T06:02:22.921Z,99469.22
2022-11-20T06:02:54.734Z,99473.56
2022-11-20T06:03:26.600Z,99472.84
2022-11-20T06:03:58.191Z,99473.69
2022-11-20T06:04:29.902Z,99470.03
2022-11-20T06:05:01.920Z,99474.53
2022-11-20T06:05:34.703Z,99468.25
2022-11-20T06:06:06.403Z,99469.22
2022-11-20T09:01:52.278Z,99495.66
2022-11-20T09:02:24.219Z,99488.53
2022-11-20T09:02:55.708Z,99493.69
2022-11-20T09:03:32.581Z,99491.91
2022-11-20T09:04:04.722Z,99501.00
2022-11-20T09:04:36.732Z,99493.84
2022-11-20T09:05:08.335Z,99497.22
2022-11-20T09:05:39.939Z,99487.56
2022-11-20T09:06:11.500Z,99500.84
2022-11-20T09:06:42.988Z,99493.84
2022-11-20T09:07:14.559Z,99494.69
2022-11-20T09:07:46.079Z,99492.88
2022-11-20T09:08:17.618Z,99496.50
2022-11-20T09:08:52.479Z,99493.00
2022-11-20T09:09:24.076Z,99499.16
2022-11-20T09:10:22.111Z,99494.84
2022-11-20T09:10:47.144Z,99497.34
2022-11-20T09:11:18.669Z,99496.34
2022-11-20T09:11:50.116Z,99488.53
2022-11-20T09:12:21.603Z,99495.53
2022-11-20T09:12:53.395Z,99497.34
2022-11-20T09:13:25.416Z,99499.16
2022-11-20T09:13:56.914Z,99492.03
2022-11-20T09:14:28.535Z,99492.88
2022-11-20T09:15:00.010Z,99493.84
2022-11-20T09:15:31.543Z,99496.34
2022-11-20T09:16:04.348Z,99496.34
2022-11-20T09:16:35.872Z,99497.50
2022-11-20T09:17:07.325Z,99497.50
2022-11-20T09:17:38.840Z,99493.84
2022-11-20T09:18:10.334Z,99494.84
2022-11-20T09:18:41.805Z,99494.69
2022-11-20T09:19:34.614Z,99488.53
2022-11-20T09:20:05.180Z,99488.25
2022-11-20T09:20:36.779Z,99493.84
2022-11-20T09:21:10.631Z,99498.88
2022-11-20T09:21:42.215Z,99489.53
2022-11-20T09:22:13.693Z,99492.88
2022-11-20T09:22:45.365Z,99490.22
2022-11-20T09:23:16.858Z,99491.03
2022-11-20T09:23:48.336Z,99493.84
2022-11-20T09:24:19.841Z,99499.88
2022-11-20T09:24:51.363Z,99501.69
2022-11-20T09:25:22.902Z,99500.84
2022-11-20T09:25:54.350Z,99494.69
2022-11-20T09:26:25.831Z,99500.03
2022-11-20T09:26:57.316Z,99498.34
2022-11-20T09:27:28.818Z,99496.50
2022-11-20T09:28:00.371Z,99495.53
2022-11-20T09:28:31.906Z,99493.69
2022-11-20T09:29:03.466Z,99499.88
2022-11-20T09:29:34.954Z,99501.53
2022-11-20T09:30:06.751Z,99494.56
2022-11-20T09:30:38.391Z,99490.91
2022-11-20T09:31:10.640Z,99492.88
2022-11-20T09:31:42.084Z,99493.69
2022-11-20T09:32:13.571Z,99499.88
2022-11-20T09:32:45.041Z,99496.34
2022-11-20T09:33:16.513Z,99497.06
2022-11-20T09:33:48.024Z,99492.03
2022-11-20T09:34:19.541Z,99493.56
2022-11-20T09:34:51.029Z,99495.53
2022-11-20T09:35:22.469Z,99491.19
2022-11-20T09:35:54.095Z,99493.69
2022-11-20T09:36:25.623Z,99496.34
2022-11-20T09:36:57.149Z,99495.53
2022-11-20T09:37:29.489Z,99483.19
2022-11-20T09:38:05.253Z,99488.53
2022-11-20T09:38:36.757Z,99487.56
2022-11-20T09:39:08.368Z,99483.19
2022-11-20T09:39:39.982Z,99483.06
2022-11-20T09:40:23.680Z,99486.72
2022-11-20T09:40:59.080Z,99478.75
2022-11-20T09:41:36.377Z,99476.91
2022-11-20T09:42:26.708Z,99477.75
2022-11-20T09:42:58.124Z,99485.88
2022-11-20T09:43:34.945Z,99483.19
2022-11-20T09:44:25.264Z,99480.53
2022-11-20T09:45:11.750Z,99479.72
2022-11-20T09:45:55.872Z,99474.25
2022-11-20T09:46:30.810Z,99481.41
2022-11-20T09:47:03.342Z,99485.88
2022-11-20T09:47:53.004Z,99477.88
2022-11-20T09:48:43.034Z,99477.88
2022-11-20T09:49:21.437Z,99479.56
2022-11-20T09:49:57.070Z,99482.22
2022-11-20T09:50:31.330Z,99481.25
2022-11-20T09:51:17.996Z,99473.28
2022-11-20T09:51:54.911Z,99479.56
2022-11-20T09:52:30.042Z,99482.09
2022-11-20T09:53:07.182Z,99477.88
2022-11-20T09:53:58.870Z,99473.28
2022-11-20T09:54:31.295Z,99477.88
2022-11-20T09:55:02.918Z,99469.75
2022-11-20T09:55:34.431Z,99470.63
2022-11-20T09:56:05.965Z,99473.28
2022-11-20T09:56:38.472Z,99472.28
2022-11-20T09:57:11.911Z,99476.91
2022-11-20T09:57:44.099Z,99471.44
2022-11-20T09:58:34.778Z,99471.59
2022-11-20T09:59:06.428Z,99473.13
2022-11-20T09:59:39.357Z,99473.97
2022-11-20T10:00:11.758Z,99471.44
2022-11-20T10:00:43.215Z,99475.94
2022-11-20T10:01:22.218Z,99474.25
2022-11-20T10:01:54.272Z,99465.31
2022-11-20T10:02:36.374Z,99466.28
2022-11-20T10:03:07.821Z,99463.63
2022-11-20T10:03:45.107Z,99463.63
2022-11-20T10:04:20.551Z,99462.91
2022-11-20T10:05:04.177Z,99468.94
2022-11-20T10:05:40.288Z,99467.09
2022-11-20T10:06:13.078Z,99468.09
2022-11-20T10:07:17.146Z,99461.91
2022-11-20T10:08:00.420Z,99465.31
2022-11-20T10:08:40.399Z,99462.63
2022-11-20T10:09:11.920Z,99471.44
2022-11-20T10:09:45.002Z,99465.31
2022-11-20T10:10:17.418Z,99466.13
2022-11-20T10:10:57.756Z,99470.63
2022-11-20T10:11:37.993Z,99469.75
2022-11-20T10:12:18.268Z,99464.44
2022-11-20T10:13:01.774Z,99465.31
2022-11-20T10:13:38.982Z,99462.63
2022-11-20T10:14:13.316Z,99458.28
2022-11-20T10:15:02.822Z,99462.63
2022-11-20T10:15:35.324Z,99453.81
2022-11-20T10:16:15.819Z,99456.31
2022-11-20T10:17:00.206Z,99456.47
2022-11-20T10:17:31.718Z,99453.94
2022-11-20T10:18:24.269Z,99459.25
2022-11-20T10:18:55.760Z,99453.94
2022-11-20T10:19:33.529Z,99455.63
2022-11-20T10:20:17.118Z,99451.13
2022-11-20T10:21:07.123Z,99449.34
2022-11-20T10:21:38.539Z,99449.34
2022-11-20T10:22:15.742Z,99450.16
2022-11-20T10:23:05.820Z,99447.66
2022-11-20T10:23:51.383Z,99447.66
2022-11-20T10:24:35.830Z,99449.34
2022-11-20T10:25:13.300Z,99451.13
2022-11-20T10:25:47.257Z,99444.84
2022-11-20T10:26:23.822Z,99448.63
2022-11-20T10:27:01.291Z,99451.28
2022-11-20T10:27:41.317Z,99446.81
2022-11-20T10:28:35.868Z,99444.84
2022-11-20T10:29:08.962Z,99439.38
2022-11-20T10:29:41.472Z,99432.38
2022-11-20T10:30:16.548Z,99438.69
2022-11-20T10:30:49.162Z,99443.16
2022-11-20T10:31:39.227Z,99444.03
2022-11-20T10:32:11.930Z,99445.13
2022-11-20T10:32:44.081Z,99442.47
2022-11-20T10:33:18.787Z,99443.16
2022-11-20T10:34:10.963Z,99444.84
2022-11-20T10:34:55.367Z,99444.84
2022-11-20T10:35:33.223Z,99446.69
2022-11-20T10:36:15.227Z,99441.38
2022-11-20T10:36:48.200Z,99440.50
2022-11-20T10:37:22.178Z,99437.00
2022-11-20T10:37:57.456Z,99444.84
2022-11-20T10:38:41.325Z,99440.34
2022-11-20T10:39:12.806Z,99442.19
2022-11-20T10:40:01.414Z,99436.72
2022-11-20T10:40:39.600Z,99441.03
2022-11-20T10:41:14.903Z,99434.22
2022-11-20T10:41:47.212Z,99430.72
2022-11-20T10:42:23.298Z,99438.56
2022-11-20T10:43:00.968Z,99430.41
2022-11-20T10:43:33.450Z,99436.72
2022-11-20T10:44:10.650Z,99436.72
2022-11-20T10:44:42.749Z,99435.91
2022-11-20T10:45:21.014Z,99435.03
2022-11-20T10:46:06.359Z,99440.34
2022-11-20T10:46:40.823Z,99434.22
2022-11-20T10:47:18.782Z,99434.06
2022-11-20T10:47:50.257Z,99437.56
2022-11-20T10:48:22.895Z,99435.03
2022-11-20T10:48:54.503Z,99437.69
2022-11-20T10:49:26.021Z,99438.56
2022-11-20T10:49:58.405Z,99435.03
2022-11-20T10:50:29.908Z,99439.38
2022-11-20T10:51:07.074Z,99435.03
2022-11-20T10:51:39.959Z,99434.22
2022-11-20T10:52:11.494Z,99432.53
2022-11-20T10:52:52.078Z,99435.03
2022-11-20T10:53:32.528Z,99437.69
2022-11-20T10:54:03.944Z,99436.19
2022-11-20T10:54:41.252Z,99437.00
2022-11-20T10:55:15.390Z,99433.66
2022-11-20T10:55:48.118Z,99437.97
2022-11-20T10:56:38.278Z,99437.97
2022-11-20T10:57:21.381Z,99438.69
2022-11-20T10:57:52.843Z,99440.66
2022-11-20T10:58:40.693Z,99442.34
2022-11-20T10:59:21.388Z,99439.00
2022-11-20T10:59:55.807Z,99438.84
2022-11-20T11:00:27.341Z,99430.00
2022-11-20T11:01:12.856Z,99430.00
2022-11-20T11:01:44.414Z,99428.06
2022-11-20T11:02:16.721Z,99429.72
2022-11-20T11:02:48.886Z,99428.06
2022-11-20T11:03:27.157Z,99428.06
2022-11-20T11:03:58.666Z,99436.19
2022-11-20T11:04:41.381Z,99425.25
2022-11-20T11:05:15.669Z,99428.88
2022-11-20T11:05:49.918Z,99426.91
2022-11-20T11:06:35.375Z,99425.41
2022-11-20T11:07:11.640Z,99430.00
2022-11-20T11:07:43.249Z,99426.38
2022-11-20T11:08:18.550Z,99425.25
2022-11-20T11:08:50.103Z,99419.06
2022-11-20T11:09:22.701Z,99420.91
2022-11-20T11:09:55.016Z,99424.41
2022-11-20T11:10:33.623Z,99426.09
2022-11-20T11:11:28.010Z,99422.03
2022-11-20T11:12:05.723Z,99421.88
2022-11-20T11:12:38.578Z,99422.75
2022-11-20T11:13:20.101Z,99423.56
2022-11-20T11:13:51.596Z,99422.75
2022-11-20T11:14:23.135Z,99422.75
2022-11-20T11:14:55.449Z,99416.56
2022-11-20T11:15:28.031Z,99417.72
2022-11-20T11:15:59.646Z,99423.84
2022-11-20T11:16:31.203Z,99418.41
2022-11-20T11:17:02.745Z,99424.69
2022-11-20T11:17:34.962Z,99428.06
2022-11-20T11:18:08.812Z,99415.72
2022-11-20T11:18:40.320Z,99416.69
2022-11-20T11:19:14.483Z,99418.41
2022-11-20T11:19:45.917Z,99412.09
2022-11-20T11:20:21.348Z,99421.88
2022-11-20T11:20:53.120Z,99410.41
2022-11-20T11:21:24.880Z,99411.25
2022-11-20T11:21:56.835Z,99412.94
2022-11-20T11:22:29.135Z,99413.75
2022-11-20T11:23:00.795Z,99415.59
2022-11-20T11:23:42.506Z,99418.09
2022-11-20T11:24:47.455Z,99416.41
2022-11-20T11:25:29.997Z,99419.94
2022-11-20T11:26:01.890Z,99418.41
2022-11-20T11:26:33.450Z,99412.25
2022-11-20T11:27:05.519Z,99410.41
2022-11-20T11:27:37.103Z,99403.41
2022-11-20T11:28:17.320Z,99408.59
2022-11-20T11:29:01.360Z,99403.25
2022-11-20T11:29:32.841Z,99392.75
2022-11-20T11:30:14.362Z,99394.44
2022-11-20T11:30:45.874Z,99392.75
2022-11-20T11:31:24.313Z,99398.09
2022-11-20T11:32:08.940Z,99400.75
2022-11-20T11:32:40.439Z,99396.13
2022-11-20T11:33:12.804Z,99393.47
2022-11-20T11:33:44.222Z,99385.66
2022-11-20T11:34:16.579Z,99390.81
2022-11-20T11:35:00.668Z,99394.31
2022-11-20T11:35:32.401Z,99400.47
2022-11-20T11:36:04.611Z,99390.81
2022-11-20T11:36:36.237Z,99389.13
2022-11-20T11:37:18.398Z,99389.13
2022-11-20T11:37:49.896Z,99389.97
2022-11-20T11:38:23.061Z,99390.97
2022-11-20T11:38:54.516Z,99395.28
2022-11-20T11:39:26.283Z,99383.81
2022-11-20T11:40:22.731Z,99388.84
2022-11-20T11:40:49.173Z,99388.84
2022-11-20T11:41:21.756Z,99385.50
2022-11-20T11:41:53.232Z,99383.81
2022-11-20T11:42:24.731Z,99384.63
2022-11-20T11:42:59.405Z,99385.50
2022-11-20T11:43:36.640Z,99386.34
2022-11-20T11:44:19.501Z,99382.13
2022-11-20T11:44:51.036Z,99383.81
2022-11-20T11:45:22.587Z,99379.31
2022-11-20T11:45:55.051Z,99381.84
2022-11-20T11:46:29.458Z,99384.63
2022-11-20T11:47:00.981Z,99379.19
2022-11-20T11:47:32.511Z,99373.03
2022-11-20T11:48:04.145Z,99373.84
2022-11-20T11:48:35.632Z,99378.34
2022-11-20T11:49:09.831Z,99372.88
2022-11-20T11:49:41.436Z,99372.88
2022-11-20T11:50:12.961Z,99374.84
2022-11-20T11:50:49.059Z,99371.50
2022-11-20T11:51:23.683Z,99373.19
2022-11-20T11:51:59.462Z,99370.38
2022-11-20T11:52:30.996Z,99372.06
2022-11-20T11:53:02.533Z,99376.38
2022-11-20T11:53:34.036Z,99372.88
2022-11-20T11:54:06.469Z,99365.88
2022-11-20T11:54:39.310Z,99371.19
2022-11-20T11:55:12.035Z,99376.53
2022-11-20T11:55:44.232Z,99377.38
2022-11-20T11:56:15.731Z,99368.53
2022-11-20T11:56:47.244Z,99370.22
2022-11-20T11:57:21.558Z,99375.69
2022-11-20T11:57:55.476Z,99375.69
2022-11-20T11:58:29.610Z,99373.84
2022-11-20T11:59:01.826Z,99365.88
2022-11-20T11:59:39.607Z,99374.84
2022-11-20T12:00:15.306Z,99366.03
2022-11-20T12:00:58.007Z,99366.88
2022-11-20T12:01:33.009Z,99362.38
2022-11-20T12:02:05.002Z,99360.56
2022-11-20T12:02:41.531Z,99364.22
2022-11-20T12:03:26.256Z,99362.38
2022-11-20T12:04:03.477Z,99363.91
2022-11-20T12:04:41.304Z,99351.59
2022-11-20T12:05:22.811Z,99371.19
2022-11-20T12:06:13.870Z,99360.56
2022-11-20T12:06:46.418Z,99360.56
2022-11-20T12:07:44.720Z,99355.25
2022-11-20T12:08:12.854Z,99355.91
2022-11-20T12:09:13.959Z,99361.41
2022-11-20T12:09:47.164Z,99353.44
2022-11-20T12:10:27.606Z,99353.44
2022-11-20T12:11:04.820Z,99347.25
2022-11-20T12:11:36.328Z,99347.94
2022-11-20T12:12:16.285Z,99343.47
2022-11-20T12:12:49.299Z,99346.28
2022-11-20T12:13:39.638Z,99344.44
2022-11-20T12:14:20.920Z,99342.94
2022-11-20T12:14:52.499Z,99339.28
2022-11-20T12:15:26.530Z,99343.63
2022-11-20T12:15:58.038Z,99348.81
2022-11-20T12:16:29.475Z,99337.31
2022-11-20T12:17:01.256Z,99342.63
2022-11-20T12:17:32.724Z,99338.00
2022-11-20T12:18:05.750Z,99342.34
2022-11-20T12:18:37.176Z,99344.31
2022-11-20T12:19:12.456Z,99339.97
2022-11-20T12:19:43.987Z,99336.47
2022-11-20T12:20:15.534Z,99335.66
2022-11-20T12:20:49.553Z,99334.34
2022-11-20T12:21:23.968Z,99331.97
2022-11-20T12:22:03.347Z,99342.34
2022-11-20T12:22:39.970Z,99331.97
2022-11-20T12:23:43.455Z,99330.47
2022-11-20T12:24:33.517Z,99329.50
2022-11-20T12:25:07.791Z,99327.81
2022-11-20T12:25:39.327Z,99332.97